Terminal Aerodrome Forecast
Issued by NWS

Home | Current Version | Previous Version | Text Only | Print | Product List | Glossary On
Versions: 1 2 3 4 5 6 7 8 9 10 11 12 13 14 15 16 17 18 19 20 21
000
FTUS45 KBOU 281735
TAFAPA
TAF
KAPA 281735Z 2818/2918 16012KT P6SM FEW120 FEW200
     FM282100 14012KT P6SM VCTS SCT070CB BKN120
     FM290200 04011KT P6SM SCT100 SCT200
     FM290600 30010KT P6SM SCT200
     FM291400 31012KT P6SM FEW100 SCT150=

USA.gov is the U.S. government's official web portal to all federal, state and local government web resources and services.